Pagrindinis puslapis
METAR-TAF:

METAR-TAF

Oro uostai :

Arika, Čilė

platuma: 18-20S, ilguma: 070-20W, Aukštis: 58 m

Dabartinis oras

Ataskaita buvo paskelbta 48 minutes, ne 23:00 UTC
Vėjas 8 kt iš Pietų/Pietvakarių
Temperatūra 15°C
Drėgmė 67%
Slėgis 1015 hPa
Matomumas 10 km arba daugiau
nėra debesų žemiau 1500 m ir nėra kamuolinių lietaus debesų

METAR: SCAR 142300Z 20008KT CAVOK 15/09 Q1015

Laikas: 19:48 (23:48 UTC)

Prognozė

Ataskaita buvo paskelbta 6 valandos ir 57 minutes, ne 16:51 UTC
Prognozė galioja nuo 14 metu 18 UTC su 15 metu 18 UTC
Vėjas 12 kt iš Pietų/Pietvakarių
Matomumas 10 km arba daugiau
nėra debesų žemiau 1500 m ir nėra kamuolinių lietaus debesų
Tapsmas
nuo 14 metu 23 UTC su 15 metu 01 UTC
Vėjas 4 kt iš Pietų/Pietvakarių
Apsiniaukę ne aukštis 2500 ft
Tapsmas
nuo 15 metu 16 UTC su 15 metu 18 UTC
Vėjas 12 kt iš Pietų/Pietvakarių
Matomumas 10 km arba daugiau
nėra debesų žemiau 1500 m ir nėra kamuolinių lietaus debesų

TAF: SCAR 141651Z 1418/1518 21012KT CAVOK TX17/1418Z TN15/1510Z BECMG 1423/1501 21004KT OVC025 BECMG 1516/1518 21012KT CAVOK

Orai ataskaitas ir orų prognozės (METAR, TAF).

turimą stotys yra geltonos ir raudonos taškus žemėlapyje.

Perkelti pele per norėdami pamatyti stoties vardą.

Tada spustelėkite, norėdami matyti oro stebėjimo ir prognozės.

Norėdami pakeisti žemėlapį: spustelėkite ant žalios mygtukų su juodo kryžiaus žemyn,; žalią mygtuką su brūkšneliu, jei norite nutolinti; arba žalių rodyklių gretimoms žemėlapius.


METAR-TAF: